createdAt,value
2022-11-19T00:01:46.551Z,5.62
2022-11-19T00:06:51.215Z,5.54
2022-11-19T00:12:11.810Z,5.55
2022-11-19T00:17:16.283Z,5.56
2022-11-19T00:22:19.329Z,5.45
2022-11-19T00:27:22.472Z,5.43
2022-11-19T00:32:27.117Z,5.49
2022-11-19T00:37:30.272Z,5.48
2022-11-19T00:42:33.560Z,5.45
2022-11-19T00:47:37.956Z,5.44
2022-11-19T00:52:41.166Z,5.44
2022-11-19T00:57:44.226Z,5.45
2022-11-19T01:02:48.629Z,5.53
2022-11-19T01:07:51.631Z,5.52
2022-11-19T01:13:12.195Z,5.46
2022-11-19T01:18:17.151Z,5.41
2022-11-19T01:23:20.100Z,5.34
2022-11-19T01:28:23.332Z,5.41
2022-11-19T01:33:28.013Z,5.18
2022-11-19T01:38:32.061Z,5.32
2022-11-19T01:43:44.245Z,5.31
2022-11-19T01:48:53.058Z,5.28
2022-11-19T01:54:00.339Z,5.26
2022-11-19T01:59:06.544Z,5.19
2022-11-19T02:04:13.263Z,5.09
2022-11-19T02:09:16.759Z,5.05
2022-11-19T02:14:36.652Z,5.03
2022-11-19T02:20:13.940Z,5.02
2022-11-19T02:25:34.628Z,4.97
2022-11-19T02:30:41.656Z,4.96
2022-11-19T02:35:51.418Z,4.90
2022-11-19T02:40:59.483Z,4.84
2022-11-19T02:46:08.718Z,4.75
2022-11-19T02:51:15.073Z,4.80
2022-11-19T02:56:51.429Z,4.81
2022-11-19T03:02:13.697Z,4.76
2022-11-19T03:07:20.388Z,4.72
2022-11-19T03:12:29.766Z,4.66
2022-11-19T03:17:44.975Z,4.61
2022-11-19T03:22:53.366Z,4.57
2022-11-19T03:28:02.528Z,4.48
2022-11-19T03:33:11.902Z,4.46
2022-11-19T03:38:21.145Z,4.35
2022-11-19T03:43:28.358Z,4.24
2022-11-19T03:48:33.294Z,4.28
2022-11-19T03:53:36.796Z,4.32
2022-11-19T03:58:41.837Z,4.32
2022-11-19T04:04:06.252Z,4.20
2022-11-19T04:09:09.552Z,4.17
2022-11-19T04:14:12.759Z,4.22
2022-11-19T04:19:18.469Z,4.09
2022-11-19T04:24:21.660Z,3.96
2022-11-19T04:29:24.751Z,3.98
2022-11-19T04:34:29.209Z,3.92
2022-11-19T04:39:32.265Z,3.90
2022-11-19T04:44:35.297Z,3.88
2022-11-19T04:49:39.855Z,3.84
2022-11-19T04:54:43.260Z,3.89
2022-11-19T04:59:46.436Z,3.80
2022-11-19T05:04:51.056Z,3.76
2022-11-19T05:09:54.146Z,3.72
2022-11-19T05:14:57.398Z,3.68
2022-11-19T05:20:03.322Z,3.66
2022-11-19T05:25:07.066Z,3.66
2022-11-19T05:30:11.538Z,3.68
2022-11-19T05:35:16.256Z,3.65
2022-11-19T05:40:20.547Z,3.66
2022-11-19T05:45:23.633Z,3.60
2022-11-19T05:50:28.583Z,3.59
2022-11-19T05:55:33.380Z,3.58
2022-11-19T06:00:36.487Z,3.59
2022-11-19T06:05:41.007Z,3.54
2022-11-19T06:10:44.132Z,3.51
2022-11-19T06:15:47.219Z,3.46
2022-11-19T06:20:51.777Z,3.41
2022-11-19T06:25:55.936Z,3.36
2022-11-19T06:30:58.920Z,3.31
2022-11-19T06:36:03.680Z,3.29
2022-11-19T06:41:07.542Z,3.27
2022-11-19T06:46:11.171Z,3.27
2022-11-19T06:51:15.990Z,3.14
2022-11-19T06:56:19.475Z,3.17
2022-11-19T07:01:22.697Z,3.14
2022-11-19T07:06:27.109Z,3.16
2022-11-19T07:11:31.129Z,3.12
2022-11-19T07:16:35.280Z,3.18
2022-11-19T07:21:39.922Z,3.25
2022-11-19T07:26:43.021Z,3.19
2022-11-19T07:31:50.468Z,3.12
2022-11-19T07:36:55.590Z,3.07
2022-11-19T07:42:16.644Z,3.06
2022-11-19T07:47:22.075Z,3.15
2022-11-19T07:52:26.738Z,3.16
2022-11-19T07:57:30.474Z,3.13
2022-11-19T08:02:33.830Z,3.03
2022-11-19T08:07:39.763Z,3.11
2022-11-19T08:13:02.901Z,3.16
2022-11-19T08:18:16.141Z,3.18
2022-11-19T08:23:20.488Z,3.19
2022-11-19T08:28:23.532Z,3.20
2022-11-19T08:33:29.322Z,3.31
2022-11-19T08:38:38.420Z,3.33
2022-11-19T08:43:42.507Z,3.37
2022-11-19T08:48:45.901Z,3.48
2022-11-19T08:53:53.013Z,3.43
2022-11-19T08:59:01.281Z,3.49
2022-11-19T09:04:06.291Z,3.57
2022-11-19T09:09:11.072Z,3.67
2022-11-19T09:14:14.225Z,3.67
2022-11-19T09:19:17.542Z,3.72
2022-11-19T09:24:22.511Z,3.79
2022-11-19T09:29:26.043Z,3.90
2022-11-19T09:34:29.133Z,3.90
2022-11-19T09:39:33.559Z,3.83
2022-11-19T09:44:59.494Z,3.84
2022-11-19T09:50:07.998Z,3.59
2022-11-19T09:55:18.091Z,3.56
2022-11-19T10:00:24.218Z,3.56
2022-11-19T10:05:38.264Z,3.60
2022-11-19T10:10:49.394Z,3.74
2022-11-19T10:16:04.165Z,3.77
2022-11-19T10:21:12.653Z,3.71
2022-11-19T10:44:37.503Z,3.50
2022-11-19T10:49:42.877Z,3.40
2022-11-19T10:54:47.938Z,3.53
2022-11-19T10:59:54.637Z,3.63
2022-11-19T11:05:04.112Z,3.71
2022-11-19T11:10:27.430Z,3.81
2022-11-19T11:15:31.995Z,3.90
2022-11-19T11:20:39.006Z,3.99
2022-11-19T11:25:51.777Z,3.99
2022-11-19T11:30:58.166Z,3.94
2022-11-19T11:36:04.653Z,3.95
2022-11-19T11:46:47.814Z,4.04
2022-11-19T11:52:00.993Z,3.97
2022-11-19T11:57:16.957Z,4.17
2022-11-19T12:02:27.112Z,4.13
2022-11-19T12:08:01.017Z,4.02
2022-11-19T12:13:44.983Z,4.11
2022-11-19T12:19:04.304Z,4.21
2022-11-19T12:24:23.903Z,4.23
2022-11-19T12:29:35.776Z,4.33
2022-11-19T12:35:04.739Z,4.42
2022-11-19T12:40:22.416Z,4.36
2022-11-19T12:45:36.863Z,4.32
2022-11-19T12:50:51.265Z,4.32
2022-11-19T12:56:06.422Z,4.38
2022-11-19T13:01:15.705Z,4.41
2022-11-19T13:06:26.052Z,4.26
2022-11-19T13:24:32.358Z,4.36
2022-11-19T13:29:42.313Z,4.30
2022-11-19T13:34:58.389Z,4.46
2022-11-19T13:40:08.273Z,4.47
2022-11-19T13:45:15.887Z,4.25
2022-11-19T13:50:27.012Z,4.24
2022-11-19T13:55:39.215Z,4.30
2022-11-19T14:00:57.469Z,4.28
2022-11-19T14:06:19.517Z,4.23
2022-11-19T14:11:37.507Z,4.11
2022-11-19T14:17:05.640Z,4.11
2022-11-19T14:22:50.258Z,4.12
2022-11-19T14:27:54.985Z,4.13
2022-11-19T14:33:01.178Z,4.06
2022-11-19T14:38:35.992Z,4.06
2022-11-19T14:44:11.244Z,3.99
2022-11-19T14:49:28.168Z,3.96
2022-11-19T14:54:34.897Z,3.98
2022-11-19T14:59:40.070Z,3.94
2022-11-19T15:04:51.369Z,3.90
2022-11-19T15:10:12.291Z,3.88
2022-11-19T15:15:42.823Z,3.84
2022-11-19T15:21:05.564Z,3.81
2022-11-19T15:26:20.161Z,3.85
2022-11-19T15:31:34.752Z,3.82
2022-11-19T15:36:41.235Z,3.75
2022-11-19T15:42:00.450Z,3.63
2022-11-19T15:47:12.408Z,3.66
2022-11-19T15:52:22.202Z,3.62
2022-11-19T15:57:28.555Z,3.60
2022-11-19T16:02:38.534Z,3.60
2022-11-19T16:07:41.880Z,3.58
2022-11-19T16:13:11.994Z,3.60
2022-11-19T16:18:17.764Z,3.57
2022-11-19T16:23:23.609Z,3.51
2022-11-19T16:28:30.503Z,3.43
2022-11-19T16:33:35.676Z,3.40
2022-11-19T16:38:41.652Z,3.39
2022-11-19T16:43:48.471Z,3.25
2022-11-19T16:48:59.057Z,3.18
2022-11-19T16:54:02.696Z,3.05
2022-11-19T16:59:06.588Z,2.92
2022-11-19T17:04:15.295Z,2.81
2022-11-19T17:09:35.720Z,2.82
2022-11-19T17:14:58.193Z,2.71
2022-11-19T17:20:02.664Z,2.58
2022-11-19T17:25:06.540Z,2.53
2022-11-19T17:30:12.221Z,2.52
2022-11-19T17:35:35.294Z,2.48
2022-11-19T17:40:39.309Z,2.34
2022-11-19T17:45:42.588Z,2.20
2022-11-19T17:50:47.275Z,2.12
2022-11-19T17:55:53.688Z,1.89
2022-11-19T18:00:57.301Z,1.71
2022-11-19T18:06:02.587Z,1.61
2022-11-19T18:11:05.903Z,1.52
2022-11-19T18:16:14.943Z,1.46
2022-11-19T18:21:20.706Z,1.36
2022-11-19T18:26:24.052Z,1.28
2022-11-19T18:31:28.994Z,1.18
2022-11-19T18:36:33.401Z,1.09
2022-11-19T18:41:36.573Z,0.98
2022-11-19T18:46:39.623Z,0.91
2022-11-19T18:51:44.443Z,0.83
2022-11-19T18:56:47.719Z,0.75
2022-11-19T19:01:52.239Z,0.72
2022-11-19T19:06:59.385Z,0.62
2022-11-19T19:12:21.467Z,0.56
2022-11-19T19:17:24.503Z,0.46
2022-11-19T19:22:29.934Z,0.41
2022-11-19T19:27:33.275Z,0.31
2022-11-19T19:32:36.216Z,0.26
2022-11-19T19:37:42.486Z,0.17
2022-11-19T19:42:45.635Z,0.11
2022-11-19T19:47:48.568Z,0.01
2022-11-19T19:52:52.976Z,-0.06
2022-11-19T19:57:58.913Z,-0.10
2022-11-19T20:03:01.894Z,-0.16
2022-11-19T20:08:06.746Z,-0.18
2022-11-19T20:13:28.488Z,-0.21
2022-11-19T20:18:33.042Z,-0.25
2022-11-19T20:23:38.122Z,-0.33
2022-11-19T20:28:41.424Z,-0.42
2022-11-19T20:33:45.598Z,-0.45
2022-11-19T20:38:50.392Z,-0.48
2022-11-19T20:44:11.099Z,-0.50
2022-11-19T20:49:17.207Z,-0.54
2022-11-19T20:54:22.552Z,-0.59
2022-11-19T20:59:29.051Z,-0.65
2022-11-19T21:04:36.433Z,-0.67
2022-11-19T21:09:41.345Z,-0.69
2022-11-19T21:14:44.266Z,-0.72
2022-11-19T21:19:47.263Z,-0.78
2022-11-19T21:24:51.794Z,-0.81
2022-11-19T21:29:54.780Z,-0.86
2022-11-19T21:35:00.558Z,-0.93
2022-11-19T21:40:05.890Z,-0.95
2022-11-19T21:45:09.906Z,-0.98
2022-11-19T21:50:13.126Z,-1.03
2022-11-19T21:55:17.581Z,-1.08
2022-11-19T22:00:21.370Z,-1.12
2022-11-19T22:05:25.057Z,-1.13
2022-11-19T22:10:32.645Z,-1.16
2022-11-19T22:15:35.662Z,-1.23
2022-11-19T22:20:38.807Z,-1.28
2022-11-19T22:25:43.113Z,-1.30
2022-11-19T22:30:53.319Z,-1.32
2022-11-19T22:35:58.553Z,-1.34
2022-11-19T22:41:06.309Z,-1.37
2022-11-19T22:46:11.224Z,-1.41
2022-11-19T22:51:16.470Z,-1.46
2022-11-19T22:56:23.062Z,-1.52
2022-11-19T23:01:28.432Z,-1.55
2022-11-19T23:06:31.389Z,-1.65
2022-11-19T23:11:53.829Z,-1.74
2022-11-19T23:16:57.049Z,-1.81
2022-11-19T23:22:00.027Z,-1.85
2022-11-19T23:27:04.538Z,-1.86
2022-11-19T23:32:07.800Z,-1.85
2022-11-19T23:37:11.060Z,-1.85
2022-11-19T23:42:15.399Z,-1.90
2022-11-19T23:47:18.661Z,-1.87
2022-11-19T23:52:22.221Z,-1.93
2022-11-19T23:57:28.704Z,-1.95
